sensor_id;sensor_type;location;lat;lon;timestamp;P1;durP1;ratioP1;P2;durP2;ratioP2
39218;SDS011;24934;52.752;6.964;2023-01-09T00:01:18;11.00;;;8.50;;
39218;SDS011;24934;52.752;6.964;2023-01-09T00:03:49;9.57;;;8.57;;
39218;SDS011;24934;52.752;6.964;2023-01-09T00:06:15;9.87;;;8.67;;
39218;SDS011;24934;52.752;6.964;2023-01-09T00:08:40;9.13;;;8.40;;
39218;SDS011;24934;52.752;6.964;2023-01-09T00:11:06;10.50;;;9.40;;
39218;SDS011;24934;52.752;6.964;2023-01-09T00:13:32;9.57;;;8.67;;
39218;SDS011;24934;52.752;6.964;2023-01-09T00:16:00;9.47;;;8.60;;
39218;SDS011;24934;52.752;6.964;2023-01-09T00:18:28;10.43;;;9.40;;
39218;SDS011;24934;52.752;6.964;2023-01-09T00:20:54;10.13;;;9.23;;
39218;SDS011;24934;52.752;6.964;2023-01-09T00:23:19;10.93;;;9.33;;
39218;SDS011;24934;52.752;6.964;2023-01-09T00:25:45;10.93;;;9.87;;
39218;SDS011;24934;52.752;6.964;2023-01-09T00:28:11;11.50;;;10.43;;
39218;SDS011;24934;52.752;6.964;2023-01-09T00:30:36;14.90;;;13.40;;
39218;SDS011;24934;52.752;6.964;2023-01-09T00:33:02;13.73;;;12.50;;
39218;SDS011;24934;52.752;6.964;2023-01-09T00:35:27;14.93;;;13.10;;
39218;SDS011;24934;52.752;6.964;2023-01-09T00:37:53;15.17;;;13.27;;
39218;SDS011;24934;52.752;6.964;2023-01-09T00:40:19;16.27;;;13.90;;
39218;SDS011;24934;52.752;6.964;2023-01-09T00:42:46;15.60;;;14.13;;
39218;SDS011;24934;52.752;6.964;2023-01-09T00:45:16;16.00;;;14.60;;
39218;SDS011;24934;52.752;6.964;2023-01-09T00:47:48;18.50;;;17.00;;
39218;SDS011;24934;52.752;6.964;2023-01-09T00:50:18;19.37;;;17.53;;
39218;SDS011;24934;52.752;6.964;2023-01-09T00:52:51;19.73;;;17.83;;
39218;SDS011;24934;52.752;6.964;2023-01-09T00:55:18;20.93;;;18.93;;
39218;SDS011;24934;52.752;6.964;2023-01-09T00:57:44;21.17;;;19.17;;
39218;SDS011;24934;52.752;6.964;2023-01-09T01:00:10;20.70;;;18.53;;
39218;SDS011;24934;52.752;6.964;2023-01-09T01:02:36;20.43;;;18.33;;
39218;SDS011;24934;52.752;6.964;2023-01-09T01:05:02;20.30;;;18.50;;
39218;SDS011;24934;52.752;6.964;2023-01-09T01:07:51;21.33;;;19.13;;
39218;SDS011;24934;52.752;6.964;2023-01-09T01:10:19;21.80;;;19.57;;
39218;SDS011;24934;52.752;6.964;2023-01-09T01:12:47;21.10;;;18.97;;
39218;SDS011;24934;52.752;6.964;2023-01-09T01:15:14;22.47;;;20.17;;
39218;SDS011;24934;52.752;6.964;2023-01-09T01:17:40;22.47;;;20.27;;
39218;SDS011;24934;52.752;6.964;2023-01-09T01:20:08;21.93;;;19.83;;
39218;SDS011;24934;52.752;6.964;2023-01-09T01:22:37;21.07;;;19.27;;
39218;SDS011;24934;52.752;6.964;2023-01-09T01:25:04;21.33;;;19.23;;
39218;SDS011;24934;52.752;6.964;2023-01-09T01:27:29;21.57;;;19.70;;
39218;SDS011;24934;52.752;6.964;2023-01-09T01:29:55;22.63;;;20.40;;
39218;SDS011;24934;52.752;6.964;2023-01-09T01:32:21;24.07;;;21.80;;
39218;SDS011;24934;52.752;6.964;2023-01-09T01:34:46;24.50;;;22.20;;
39218;SDS011;24934;52.752;6.964;2023-01-09T01:37:12;26.07;;;23.57;;
39218;SDS011;24934;52.752;6.964;2023-01-09T01:39:38;24.77;;;22.37;;
39218;SDS011;24934;52.752;6.964;2023-01-09T01:42:12;25.80;;;23.30;;
39218;SDS011;24934;52.752;6.964;2023-01-09T01:47:32;24.50;;;22.30;;
39218;SDS011;24934;52.752;6.964;2023-01-09T01:52:59;24.63;;;22.53;;
39218;SDS011;24934;52.752;6.964;2023-01-09T01:55:32;28.10;;;25.70;;
39218;SDS011;24934;52.752;6.964;2023-01-09T01:58:03;28.17;;;25.57;;
39218;SDS011;24934;52.752;6.964;2023-01-09T02:00:32;27.43;;;25.03;;
39218;SDS011;24934;52.752;6.964;2023-01-09T02:03:03;25.73;;;23.63;;
39218;SDS011;24934;52.752;6.964;2023-01-09T02:05:30;25.40;;;23.20;;
39218;SDS011;24934;52.752;6.964;2023-01-09T02:07:55;25.10;;;22.80;;
39218;SDS011;24934;52.752;6.964;2023-01-09T02:10:21;24.67;;;22.50;;
39218;SDS011;24934;52.752;6.964;2023-01-09T02:12:48;21.60;;;19.70;;
39218;SDS011;24934;52.752;6.964;2023-01-09T02:15:14;21.23;;;19.33;;
39218;SDS011;24934;52.752;6.964;2023-01-09T02:29:03;15.67;;;14.53;;
39218;SDS011;24934;52.752;6.964;2023-01-09T02:34:23;15.70;;;14.50;;
39218;SDS011;24934;52.752;6.964;2023-01-09T02:37:04;15.33;;;14.13;;
39218;SDS011;24934;52.752;6.964;2023-01-09T02:39:51;14.83;;;13.73;;
39218;SDS011;24934;52.752;6.964;2023-01-09T02:42:24;15.10;;;14.00;;
39218;SDS011;24934;52.752;6.964;2023-01-09T02:44:51;14.83;;;13.83;;
39218;SDS011;24934;52.752;6.964;2023-01-09T02:50:06;16.53;;;15.30;;
39218;SDS011;24934;52.752;6.964;2023-01-09T02:57:54;14.17;;;13.17;;
39218;SDS011;24934;52.752;6.964;2023-01-09T03:00:33;14.63;;;13.20;;
39218;SDS011;24934;52.752;6.964;2023-01-09T03:08:41;14.50;;;13.30;;
39218;SDS011;24934;52.752;6.964;2023-01-09T03:11:12;15.00;;;13.80;;
39218;SDS011;24934;52.752;6.964;2023-01-09T03:13:40;15.77;;;14.43;;
39218;SDS011;24934;52.752;6.964;2023-01-09T03:16:10;14.30;;;13.20;;
39218;SDS011;24934;52.752;6.964;2023-01-09T03:18:39;15.37;;;13.90;;
39218;SDS011;24934;52.752;6.964;2023-01-09T03:21:07;15.60;;;14.30;;
39218;SDS011;24934;52.752;6.964;2023-01-09T03:23:49;16.37;;;14.97;;
39218;SDS011;24934;52.752;6.964;2023-01-09T03:26:20;15.13;;;13.77;;
39218;SDS011;24934;52.752;6.964;2023-01-09T03:28:48;16.93;;;15.47;;
39218;SDS011;24934;52.752;6.964;2023-01-09T03:31:15;16.30;;;14.90;;
39218;SDS011;24934;52.752;6.964;2023-01-09T03:33:41;16.80;;;15.43;;
39218;SDS011;24934;52.752;6.964;2023-01-09T03:36:07;17.00;;;15.50;;
39218;SDS011;24934;52.752;6.964;2023-01-09T03:38:34;17.27;;;15.67;;
39218;SDS011;24934;52.752;6.964;2023-01-09T03:41:00;17.57;;;15.93;;
39218;SDS011;24934;52.752;6.964;2023-01-09T03:43:29;18.10;;;15.70;;
39218;SDS011;24934;52.752;6.964;2023-01-09T03:45:59;17.23;;;15.57;;
39218;SDS011;24934;52.752;6.964;2023-01-09T03:48:28;18.03;;;16.43;;
39218;SDS011;24934;52.752;6.964;2023-01-09T03:50:54;21.10;;;17.33;;
39218;SDS011;24934;52.752;6.964;2023-01-09T03:53:20;18.83;;;17.33;;
39218;SDS011;24934;52.752;6.964;2023-01-09T03:55:48;19.60;;;17.50;;
39218;SDS011;24934;52.752;6.964;2023-01-09T03:58:17;19.30;;;17.37;;
39218;SDS011;24934;52.752;6.964;2023-01-09T04:00:46;21.80;;;17.83;;
39218;SDS011;24934;52.752;6.964;2023-01-09T04:03:16;18.67;;;16.87;;
39218;SDS011;24934;52.752;6.964;2023-01-09T04:05:44;19.47;;;17.33;;
39218;SDS011;24934;52.752;6.964;2023-01-09T04:08:16;21.33;;;19.10;;
39218;SDS011;24934;52.752;6.964;2023-01-09T04:10:43;20.97;;;17.50;;
39218;SDS011;24934;52.752;6.964;2023-01-09T04:13:12;20.70;;;18.70;;
39218;SDS011;24934;52.752;6.964;2023-01-09T04:15:38;20.43;;;18.50;;
39218;SDS011;24934;52.752;6.964;2023-01-09T04:18:04;21.37;;;18.90;;
39218;SDS011;24934;52.752;6.964;2023-01-09T04:20:30;23.53;;;18.70;;
39218;SDS011;24934;52.752;6.964;2023-01-09T04:22:58;25.13;;;19.63;;
39218;SDS011;24934;52.752;6.964;2023-01-09T04:25:30;25.47;;;21.20;;
39218;SDS011;24934;52.752;6.964;2023-01-09T04:27:55;27.90;;;21.37;;
39218;SDS011;24934;52.752;6.964;2023-01-09T04:30:21;25.83;;;22.63;;
39218;SDS011;24934;52.752;6.964;2023-01-09T04:32:47;28.03;;;23.50;;
39218;SDS011;24934;52.752;6.964;2023-01-09T04:35:12;27.40;;;24.50;;
39218;SDS011;24934;52.752;6.964;2023-01-09T04:37:38;34.20;;;26.80;;
39218;SDS011;24934;52.752;6.964;2023-01-09T04:40:04;28.83;;;25.40;;
39218;SDS011;24934;52.752;6.964;2023-01-09T04:42:40;33.40;;;26.67;;
39218;SDS011;24934;52.752;6.964;2023-01-09T04:45:07;35.27;;;26.97;;
39218;SDS011;24934;52.752;6.964;2023-01-09T04:47:34;34.30;;;28.20;;
39218;SDS011;24934;52.752;6.964;2023-01-09T04:50:00;34.70;;;28.10;;
39218;SDS011;24934;52.752;6.964;2023-01-09T04:52:26;38.43;;;28.13;;
39218;SDS011;24934;52.752;6.964;2023-01-09T04:54:52;34.57;;;27.27;;
39218;SDS011;24934;52.752;6.964;2023-01-09T04:57:17;42.23;;;28.20;;
39218;SDS011;24934;52.752;6.964;2023-01-09T04:59:43;33.57;;;27.03;;
39218;SDS011;24934;52.752;6.964;2023-01-09T05:02:09;34.37;;;27.67;;
39218;SDS011;24934;52.752;6.964;2023-01-09T05:04:35;36.27;;;27.87;;
39218;SDS011;24934;52.752;6.964;2023-01-09T05:07:01;31.30;;;27.37;;
39218;SDS011;24934;52.752;6.964;2023-01-09T05:09:26;34.67;;;28.23;;
39218;SDS011;24934;52.752;6.964;2023-01-09T05:11:54;34.83;;;27.70;;
39218;SDS011;24934;52.752;6.964;2023-01-09T05:14:20;33.20;;;28.17;;
39218;SDS011;24934;52.752;6.964;2023-01-09T05:16:46;32.67;;;29.00;;
39218;SDS011;24934;52.752;6.964;2023-01-09T05:19:15;31.57;;;28.00;;
39218;SDS011;24934;52.752;6.964;2023-01-09T05:21:41;33.07;;;28.53;;
39218;SDS011;24934;52.752;6.964;2023-01-09T05:24:06;33.27;;;27.93;;
39218;SDS011;24934;52.752;6.964;2023-01-09T05:26:32;34.37;;;28.90;;
39218;SDS011;24934;52.752;6.964;2023-01-09T05:28:57;33.90;;;28.00;;
39218;SDS011;24934;52.752;6.964;2023-01-09T05:31:24;34.80;;;28.13;;
39218;SDS011;24934;52.752;6.964;2023-01-09T05:33:50;34.73;;;28.00;;
39218;SDS011;24934;52.752;6.964;2023-01-09T05:36:16;35.03;;;28.53;;
39218;SDS011;24934;52.752;6.964;2023-01-09T05:38:42;34.03;;;28.77;;
39218;SDS011;24934;52.752;6.964;2023-01-09T05:41:10;36.87;;;29.70;;
39218;SDS011;24934;52.752;6.964;2023-01-09T05:43:36;33.30;;;29.00;;
39218;SDS011;24934;52.752;6.964;2023-01-09T05:46:01;40.20;;;29.57;;
39218;SDS011;24934;52.752;6.964;2023-01-09T05:48:30;33.90;;;29.00;;
39218;SDS011;24934;52.752;6.964;2023-01-09T05:50:56;37.13;;;29.83;;
39218;SDS011;24934;52.752;6.964;2023-01-09T05:53:22;39.87;;;29.70;;
39218;SDS011;24934;52.752;6.964;2023-01-09T05:55:50;39.90;;;30.17;;
39218;SDS011;24934;52.752;6.964;2023-01-09T05:58:16;37.63;;;28.93;;
39218;SDS011;24934;52.752;6.964;2023-01-09T06:00:41;34.60;;;29.43;;
39218;SDS011;24934;52.752;6.964;2023-01-09T06:03:07;36.83;;;29.83;;
39218;SDS011;24934;52.752;6.964;2023-01-09T06:05:33;39.03;;;30.10;;
39218;SDS011;24934;52.752;6.964;2023-01-09T06:07:58;35.90;;;30.10;;
39218;SDS011;24934;52.752;6.964;2023-01-09T06:10:24;35.67;;;28.77;;
39218;SDS011;24934;52.752;6.964;2023-01-09T06:12:49;37.27;;;29.93;;
39218;SDS011;24934;52.752;6.964;2023-01-09T06:15:16;35.77;;;27.17;;
39218;SDS011;24934;52.752;6.964;2023-01-09T06:17:42;34.47;;;28.10;;
39218;SDS011;24934;52.752;6.964;2023-01-09T06:20:08;34.77;;;27.67;;
39218;SDS011;24934;52.752;6.964;2023-01-09T06:22:34;34.60;;;28.57;;
39218;SDS011;24934;52.752;6.964;2023-01-09T06:25:00;32.10;;;27.50;;
39218;SDS011;24934;52.752;6.964;2023-01-09T06:27:26;36.10;;;28.23;;
39218;SDS011;24934;52.752;6.964;2023-01-09T06:29:52;30.13;;;27.10;;
39218;SDS011;24934;52.752;6.964;2023-01-09T06:32:17;29.60;;;26.40;;
39218;SDS011;24934;52.752;6.964;2023-01-09T06:34:43;30.30;;;25.83;;
39218;SDS011;24934;52.752;6.964;2023-01-09T06:37:09;29.63;;;26.53;;
39218;SDS011;24934;52.752;6.964;2023-01-09T06:39:34;28.10;;;24.37;;
39218;SDS011;24934;52.752;6.964;2023-01-09T06:42:00;29.53;;;25.07;;
39218;SDS011;24934;52.752;6.964;2023-01-09T06:44:26;27.73;;;24.83;;
39218;SDS011;24934;52.752;6.964;2023-01-09T06:46:54;31.80;;;26.07;;
39218;SDS011;24934;52.752;6.964;2023-01-09T06:49:20;27.70;;;24.80;;
39218;SDS011;24934;52.752;6.964;2023-01-09T06:51:49;28.03;;;24.80;;
39218;SDS011;24934;52.752;6.964;2023-01-09T06:54:15;27.83;;;24.40;;
39218;SDS011;24934;52.752;6.964;2023-01-09T06:56:42;26.87;;;23.93;;
39218;SDS011;24934;52.752;6.964;2023-01-09T06:59:07;28.10;;;25.17;;
39218;SDS011;24934;52.752;6.964;2023-01-09T07:01:33;26.83;;;24.03;;
39218;SDS011;24934;52.752;6.964;2023-01-09T07:03:59;28.83;;;25.50;;
39218;SDS011;24934;52.752;6.964;2023-01-09T07:06:24;30.33;;;25.20;;
39218;SDS011;24934;52.752;6.964;2023-01-09T07:08:50;28.60;;;24.97;;
39218;SDS011;24934;52.752;6.964;2023-01-09T07:11:16;31.30;;;25.33;;
39218;SDS011;24934;52.752;6.964;2023-01-09T07:13:41;34.93;;;26.87;;
39218;SDS011;24934;52.752;6.964;2023-01-09T07:16:07;32.07;;;26.13;;
39218;SDS011;24934;52.752;6.964;2023-01-09T07:18:33;28.37;;;25.47;;
39218;SDS011;24934;52.752;6.964;2023-01-09T07:20:59;29.43;;;26.27;;
39218;SDS011;24934;52.752;6.964;2023-01-09T07:23:25;30.03;;;26.33;;
39218;SDS011;24934;52.752;6.964;2023-01-09T07:25:50;28.93;;;25.73;;
39218;SDS011;24934;52.752;6.964;2023-01-09T07:28:16;28.97;;;25.83;;
39218;SDS011;24934;52.752;6.964;2023-01-09T07:30:42;31.13;;;27.00;;
39218;SDS011;24934;52.752;6.964;2023-01-09T07:33:07;30.33;;;26.13;;
39218;SDS011;24934;52.752;6.964;2023-01-09T07:35:33;33.27;;;26.50;;
39218;SDS011;24934;52.752;6.964;2023-01-09T07:38:01;27.93;;;25.07;;
39218;SDS011;24934;52.752;6.964;2023-01-09T07:40:27;29.30;;;25.23;;
39218;SDS011;24934;52.752;6.964;2023-01-09T07:42:53;26.93;;;24.23;;
39218;SDS011;24934;52.752;6.964;2023-01-09T07:45:18;30.60;;;26.20;;
39218;SDS011;24934;52.752;6.964;2023-01-09T07:47:44;30.70;;;26.17;;
39218;SDS011;24934;52.752;6.964;2023-01-09T07:50:10;28.87;;;25.43;;
39218;SDS011;24934;52.752;6.964;2023-01-09T07:52:35;28.13;;;25.23;;
39218;SDS011;24934;52.752;6.964;2023-01-09T07:55:01;28.47;;;25.70;;
39218;SDS011;24934;52.752;6.964;2023-01-09T07:57:27;33.17;;;25.77;;
39218;SDS011;24934;52.752;6.964;2023-01-09T07:59:54;34.30;;;26.40;;
39218;SDS011;24934;52.752;6.964;2023-01-09T08:02:20;29.97;;;25.77;;
39218;SDS011;24934;52.752;6.964;2023-01-09T08:04:45;34.33;;;26.63;;
39218;SDS011;24934;52.752;6.964;2023-01-09T08:07:11;30.13;;;26.97;;
39218;SDS011;24934;52.752;6.964;2023-01-09T08:09:37;34.37;;;26.83;;
39218;SDS011;24934;52.752;6.964;2023-01-09T08:12:03;34.77;;;26.20;;
39218;SDS011;24934;52.752;6.964;2023-01-09T08:14:29;30.00;;;25.73;;
39218;SDS011;24934;52.752;6.964;2023-01-09T08:16:56;33.57;;;26.23;;
39218;SDS011;24934;52.752;6.964;2023-01-09T08:19:22;31.93;;;26.73;;
39218;SDS011;24934;52.752;6.964;2023-01-09T08:21:48;32.50;;;27.47;;
39218;SDS011;24934;52.752;6.964;2023-01-09T08:24:17;29.13;;;25.97;;
39218;SDS011;24934;52.752;6.964;2023-01-09T08:26:42;29.47;;;26.33;;
39218;SDS011;24934;52.752;6.964;2023-01-09T08:29:08;29.43;;;26.40;;
39218;SDS011;24934;52.752;6.964;2023-01-09T08:31:34;29.60;;;26.50;;
39218;SDS011;24934;52.752;6.964;2023-01-09T08:34:00;28.63;;;25.63;;
39218;SDS011;24934;52.752;6.964;2023-01-09T08:36:28;30.07;;;26.47;;
39218;SDS011;24934;52.752;6.964;2023-01-09T08:38:54;28.37;;;25.37;;
39218;SDS011;24934;52.752;6.964;2023-01-09T08:41:23;27.53;;;24.77;;
39218;SDS011;24934;52.752;6.964;2023-01-09T08:44:07;27.20;;;24.20;;
39218;SDS011;24934;52.752;6.964;2023-01-09T08:46:51;28.47;;;22.60;;
39218;SDS011;24934;52.752;6.964;2023-01-09T08:49:32;30.03;;;22.93;;
39218;SDS011;24934;52.752;6.964;2023-01-09T08:52:03;25.97;;;23.27;;
39218;SDS011;24934;52.752;6.964;2023-01-09T08:54:29;28.80;;;22.57;;
39218;SDS011;24934;52.752;6.964;2023-01-09T08:56:55;25.80;;;23.10;;
39218;SDS011;24934;52.752;6.964;2023-01-09T08:59:21;25.20;;;22.40;;
39218;SDS011;24934;52.752;6.964;2023-01-09T09:01:47;31.30;;;23.03;;
39218;SDS011;24934;52.752;6.964;2023-01-09T09:04:13;25.10;;;22.37;;
39218;SDS011;24934;52.752;6.964;2023-01-09T09:06:38;27.37;;;22.90;;
39218;SDS011;24934;52.752;6.964;2023-01-09T09:09:06;26.00;;;22.87;;
39218;SDS011;24934;52.752;6.964;2023-01-09T09:11:35;27.67;;;23.43;;
39218;SDS011;24934;52.752;6.964;2023-01-09T09:14:01;31.87;;;23.13;;
39218;SDS011;24934;52.752;6.964;2023-01-09T09:16:47;32.53;;;22.93;;
39218;SDS011;24934;52.752;6.964;2023-01-09T09:19:13;28.77;;;23.67;;
39218;SDS011;24934;52.752;6.964;2023-01-09T09:21:39;41.43;;;23.80;;
39218;SDS011;24934;52.752;6.964;2023-01-09T09:24:04;30.03;;;23.50;;
39218;SDS011;24934;52.752;6.964;2023-01-09T09:26:30;33.83;;;24.17;;
39218;SDS011;24934;52.752;6.964;2023-01-09T09:28:56;29.07;;;24.43;;
39218;SDS011;24934;52.752;6.964;2023-01-09T09:31:22;31.53;;;24.10;;
39218;SDS011;24934;52.752;6.964;2023-01-09T09:33:48;29.20;;;23.80;;
39218;SDS011;24934;52.752;6.964;2023-01-09T09:36:14;27.20;;;23.87;;
39218;SDS011;24934;52.752;6.964;2023-01-09T09:38:45;28.17;;;23.33;;
39218;SDS011;24934;52.752;6.964;2023-01-09T09:41:36;27.13;;;23.37;;
39218;SDS011;24934;52.752;6.964;2023-01-09T09:47:14;27.23;;;23.67;;
39218;SDS011;24934;52.752;6.964;2023-01-09T09:49:53;26.00;;;23.60;;
39218;SDS011;24934;52.752;6.964;2023-01-09T09:55:19;29.30;;;23.37;;
39218;SDS011;24934;52.752;6.964;2023-01-09T09:57:49;27.10;;;23.07;;
39218;SDS011;24934;52.752;6.964;2023-01-09T10:00:20;25.40;;;22.70;;
39218;SDS011;24934;52.752;6.964;2023-01-09T10:05:26;27.33;;;22.23;;
39218;SDS011;24934;52.752;6.964;2023-01-09T10:08:08;24.10;;;21.70;;
39218;SDS011;24934;52.752;6.964;2023-01-09T10:10:52;23.20;;;20.90;;
39218;SDS011;24934;52.752;6.964;2023-01-09T10:13:19;23.53;;;20.97;;
39218;SDS011;24934;52.752;6.964;2023-01-09T10:21:31;23.00;;;20.90;;
39218;SDS011;24934;52.752;6.964;2023-01-09T10:26:45;23.13;;;20.97;;
39218;SDS011;24934;52.752;6.964;2023-01-09T10:37:20;22.87;;;20.53;;
39218;SDS011;24934;52.752;6.964;2023-01-09T10:42:45;23.90;;;21.50;;
39218;SDS011;24934;52.752;6.964;2023-01-09T10:45:15;24.30;;;21.73;;
39218;SDS011;24934;52.752;6.964;2023-01-09T10:48:21;22.73;;;20.57;;
39218;SDS011;24934;52.752;6.964;2023-01-09T10:50:53;22.40;;;20.43;;
39218;SDS011;24934;52.752;6.964;2023-01-09T10:53:21;24.37;;;21.73;;
39218;SDS011;24934;52.752;6.964;2023-01-09T10:55:53;26.17;;;22.00;;
39218;SDS011;24934;52.752;6.964;2023-01-09T10:58:24;23.73;;;21.40;;
39218;SDS011;24934;52.752;6.964;2023-01-09T11:00:50;25.63;;;22.27;;
39218;SDS011;24934;52.752;6.964;2023-01-09T11:03:18;23.67;;;21.40;;
39218;SDS011;24934;52.752;6.964;2023-01-09T11:05:50;23.80;;;21.63;;
39218;SDS011;24934;52.752;6.964;2023-01-09T11:10:43;24.60;;;22.20;;
39218;SDS011;24934;52.752;6.964;2023-01-09T11:13:12;24.57;;;22.33;;
39218;SDS011;24934;52.752;6.964;2023-01-09T11:16:16;25.57;;;22.73;;
39218;SDS011;24934;52.752;6.964;2023-01-09T11:23:52;23.67;;;21.67;;
39218;SDS011;24934;52.752;6.964;2023-01-09T11:26:25;24.90;;;22.37;;
39218;SDS011;24934;52.752;6.964;2023-01-09T11:29:11;23.20;;;21.27;;
39218;SDS011;24934;52.752;6.964;2023-01-09T11:31:38;24.37;;;22.13;;
39218;SDS011;24934;52.752;6.964;2023-01-09T11:34:27;23.27;;;20.87;;
39218;SDS011;24934;52.752;6.964;2023-01-09T11:36:53;22.57;;;20.47;;
39218;SDS011;24934;52.752;6.964;2023-01-09T11:39:49;22.87;;;20.40;;
39218;SDS011;24934;52.752;6.964;2023-01-09T11:42:18;23.60;;;21.13;;
39218;SDS011;24934;52.752;6.964;2023-01-09T11:45:20;23.00;;;20.80;;
39218;SDS011;24934;52.752;6.964;2023-01-09T11:47:57;22.03;;;19.90;;
39218;SDS011;24934;52.752;6.964;2023-01-09T11:55:43;25.00;;;21.17;;
39218;SDS011;24934;52.752;6.964;2023-01-09T11:58:11;25.13;;;22.60;;
39218;SDS011;24934;52.752;6.964;2023-01-09T12:00:53;25.00;;;22.60;;
39218;SDS011;24934;52.752;6.964;2023-01-09T12:06:27;25.87;;;23.27;;
39218;SDS011;24934;52.752;6.964;2023-01-09T12:09:07;25.70;;;23.10;;
39218;SDS011;24934;52.752;6.964;2023-01-09T12:12:10;27.90;;;23.37;;
39218;SDS011;24934;52.752;6.964;2023-01-09T12:23:23;29.23;;;26.40;;
39218;SDS011;24934;52.752;6.964;2023-01-09T12:37:29;32.20;;;28.83;;
39218;SDS011;24934;52.752;6.964;2023-01-09T12:40:24;33.60;;;28.43;;
39218;SDS011;24934;52.752;6.964;2023-01-09T12:52:11;30.90;;;27.70;;
39218;SDS011;24934;52.752;6.964;2023-01-09T12:54:55;32.03;;;28.27;;
39218;SDS011;24934;52.752;6.964;2023-01-09T12:57:31;33.27;;;28.83;;
39218;SDS011;24934;52.752;6.964;2023-01-09T13:00:23;39.70;;;30.40;;
39218;SDS011;24934;52.752;6.964;2023-01-09T13:03:01;33.47;;;29.83;;
39218;SDS011;24934;52.752;6.964;2023-01-09T13:11:02;34.53;;;29.70;;
39218;SDS011;24934;52.752;6.964;2023-01-09T13:13:31;37.57;;;29.87;;
39218;SDS011;24934;52.752;6.964;2023-01-09T13:16:07;35.77;;;29.63;;
39218;SDS011;24934;52.752;6.964;2023-01-09T13:18:43;37.67;;;29.83;;
39218;SDS011;24934;52.752;6.964;2023-01-09T13:21:19;38.10;;;29.87;;
39218;SDS011;24934;52.752;6.964;2023-01-09T13:26:20;39.37;;;31.50;;
39218;SDS011;24934;52.752;6.964;2023-01-09T13:28:57;37.13;;;31.23;;
39218;SDS011;24934;52.752;6.964;2023-01-09T13:34:22;36.17;;;30.40;;
39218;SDS011;24934;52.752;6.964;2023-01-09T13:36:51;39.87;;;31.53;;
39218;SDS011;24934;52.752;6.964;2023-01-09T13:39:20;41.10;;;31.13;;
39218;SDS011;24934;52.752;6.964;2023-01-09T13:41:51;37.17;;;30.40;;
39218;SDS011;24934;52.752;6.964;2023-01-09T13:44:40;33.87;;;30.37;;
39218;SDS011;24934;52.752;6.964;2023-01-09T13:47:27;34.77;;;31.07;;
39218;SDS011;24934;52.752;6.964;2023-01-09T13:49:56;38.00;;;30.83;;
39218;SDS011;24934;52.752;6.964;2023-01-09T13:52:30;37.27;;;30.93;;
39218;SDS011;24934;52.752;6.964;2023-01-09T13:57:44;35.57;;;31.20;;
39218;SDS011;24934;52.752;6.964;2023-01-09T14:03:16;39.57;;;31.87;;
39218;SDS011;24934;52.752;6.964;2023-01-09T14:13:12;34.07;;;29.33;;
39218;SDS011;24934;52.752;6.964;2023-01-09T14:16:00;33.80;;;28.63;;
39218;SDS011;24934;52.752;6.964;2023-01-09T14:18:33;36.23;;;27.77;;
39218;SDS011;24934;52.752;6.964;2023-01-09T14:21:05;38.43;;;27.90;;
39218;SDS011;24934;52.752;6.964;2023-01-09T14:26:20;35.63;;;26.10;;
39218;SDS011;24934;52.752;6.964;2023-01-09T14:28:48;30.57;;;25.93;;
39218;SDS011;24934;52.752;6.964;2023-01-09T14:31:28;32.70;;;26.30;;
39218;SDS011;24934;52.752;6.964;2023-01-09T14:34:16;28.33;;;25.27;;
39218;SDS011;24934;52.752;6.964;2023-01-09T14:36:51;29.60;;;24.07;;
39218;SDS011;24934;52.752;6.964;2023-01-09T14:39:19;27.40;;;24.40;;
39218;SDS011;24934;52.752;6.964;2023-01-09T14:41:49;31.03;;;23.73;;
39218;SDS011;24934;52.752;6.964;2023-01-09T14:44:26;35.93;;;23.13;;
39218;SDS011;24934;52.752;6.964;2023-01-09T14:47:21;27.77;;;22.63;;
39218;SDS011;24934;52.752;6.964;2023-01-09T14:50:02;32.97;;;21.67;;
39218;SDS011;24934;52.752;6.964;2023-01-09T14:58:23;30.43;;;21.53;;
39218;SDS011;24934;52.752;6.964;2023-01-09T15:08:54;26.97;;;19.03;;
39218;SDS011;24934;52.752;6.964;2023-01-09T15:11:40;27.77;;;20.00;;
39218;SDS011;24934;52.752;6.964;2023-01-09T15:14:06;31.63;;;20.03;;
39218;SDS011;24934;52.752;6.964;2023-01-09T15:16:47;24.37;;;19.27;;
39218;SDS011;24934;52.752;6.964;2023-01-09T15:19:13;26.77;;;19.23;;
39218;SDS011;24934;52.752;6.964;2023-01-09T15:21:39;22.70;;;18.83;;
39218;SDS011;24934;52.752;6.964;2023-01-09T15:24:23;34.20;;;19.47;;
39218;SDS011;24934;52.752;6.964;2023-01-09T15:27:02;31.87;;;19.27;;
39218;SDS011;24934;52.752;6.964;2023-01-09T15:29:35;35.07;;;19.57;;
39218;SDS011;24934;52.752;6.964;2023-01-09T15:32:02;23.43;;;18.57;;
39218;SDS011;24934;52.752;6.964;2023-01-09T15:34:30;32.23;;;19.53;;
39218;SDS011;24934;52.752;6.964;2023-01-09T15:36:57;26.30;;;19.27;;
39218;SDS011;24934;52.752;6.964;2023-01-09T15:39:35;33.23;;;19.10;;
39218;SDS011;24934;52.752;6.964;2023-01-09T15:42:02;31.23;;;19.57;;
39218;SDS011;24934;52.752;6.964;2023-01-09T15:44:47;28.37;;;19.00;;
39218;SDS011;24934;52.752;6.964;2023-01-09T15:47:19;30.63;;;19.20;;
39218;SDS011;24934;52.752;6.964;2023-01-09T15:49:51;26.00;;;18.43;;
39218;SDS011;24934;52.752;6.964;2023-01-09T15:52:18;38.50;;;20.03;;
39218;SDS011;24934;52.752;6.964;2023-01-09T15:54:48;30.90;;;20.23;;
39218;SDS011;24934;52.752;6.964;2023-01-09T15:59:55;28.40;;;20.40;;
39218;SDS011;24934;52.752;6.964;2023-01-09T16:02:24;30.83;;;21.03;;
39218;SDS011;24934;52.752;6.964;2023-01-09T16:05:13;34.33;;;20.73;;
39218;SDS011;24934;52.752;6.964;2023-01-09T16:07:49;28.43;;;20.37;;
39218;SDS011;24934;52.752;6.964;2023-01-09T16:10:34;34.50;;;21.23;;
39218;SDS011;24934;52.752;6.964;2023-01-09T16:13:00;28.87;;;20.80;;
39218;SDS011;24934;52.752;6.964;2023-01-09T16:15:36;40.27;;;21.40;;
39218;SDS011;24934;52.752;6.964;2023-01-09T16:18:06;37.47;;;21.53;;
39218;SDS011;24934;52.752;6.964;2023-01-09T16:20:46;35.57;;;20.87;;
39218;SDS011;24934;52.752;6.964;2023-01-09T16:23:19;33.00;;;20.67;;
39218;SDS011;24934;52.752;6.964;2023-01-09T16:25:47;35.93;;;21.50;;
39218;SDS011;24934;52.752;6.964;2023-01-09T16:28:20;37.17;;;21.07;;
39218;SDS011;24934;52.752;6.964;2023-01-09T16:31:02;36.07;;;21.60;;
39218;SDS011;24934;52.752;6.964;2023-01-09T16:33:32;37.47;;;20.87;;
39218;SDS011;24934;52.752;6.964;2023-01-09T16:35:58;34.70;;;20.77;;
39218;SDS011;24934;52.752;6.964;2023-01-09T16:38:25;35.90;;;21.33;;
39218;SDS011;24934;52.752;6.964;2023-01-09T16:43:43;31.10;;;21.37;;
39218;SDS011;24934;52.752;6.964;2023-01-09T16:46:09;30.33;;;20.70;;
39218;SDS011;24934;52.752;6.964;2023-01-09T16:48:39;32.37;;;21.03;;
39218;SDS011;24934;52.752;6.964;2023-01-09T16:51:05;25.80;;;21.33;;
39218;SDS011;24934;52.752;6.964;2023-01-09T16:53:31;26.30;;;20.83;;
39218;SDS011;24934;52.752;6.964;2023-01-09T16:55:57;25.90;;;20.43;;
39218;SDS011;24934;52.752;6.964;2023-01-09T16:58:23;33.13;;;22.00;;
39218;SDS011;24934;52.752;6.964;2023-01-09T17:00:52;28.37;;;21.93;;
39218;SDS011;24934;52.752;6.964;2023-01-09T17:03:18;31.57;;;22.13;;
39218;SDS011;24934;52.752;6.964;2023-01-09T17:05:50;43.83;;;22.37;;
39218;SDS011;24934;52.752;6.964;2023-01-09T17:08:20;36.83;;;22.50;;
39218;SDS011;24934;52.752;6.964;2023-01-09T17:10:46;34.07;;;22.97;;